createdAt,value
2017-09-29T00:01:46.190Z,86.44
2017-09-29T00:04:13.604Z,86.34
2017-09-29T00:06:40.998Z,86.84
2017-09-29T00:09:08.406Z,86.57
2017-09-29T00:11:35.862Z,86.30
2017-09-29T00:14:03.276Z,86.14
2017-09-29T00:16:30.678Z,86.44
2017-09-29T00:18:58.073Z,86.41
2017-09-29T00:21:25.483Z,86.28
2017-09-29T00:23:52.891Z,86.17
2017-09-29T00:26:20.312Z,86.23
2017-09-29T00:28:47.695Z,86.74
2017-09-29T00:31:15.102Z,87.85
2017-09-29T00:33:42.502Z,87.58
2017-09-29T00:36:09.906Z,87.04
2017-09-29T00:38:37.306Z,87.20
2017-09-29T00:41:04.715Z,86.18
2017-09-29T00:43:32.119Z,86.41
2017-09-29T00:45:59.557Z,86.29
2017-09-29T00:48:26.969Z,86.37
2017-09-29T00:50:54.366Z,86.48
2017-09-29T00:53:21.754Z,85.80
2017-09-29T00:55:49.230Z,85.59
2017-09-29T00:58:16.722Z,85.83
2017-09-29T01:00:44.179Z,85.53
2017-09-29T01:03:11.582Z,84.93
2017-09-29T01:05:38.991Z,85.19
2017-09-29T01:08:06.386Z,84.70
2017-09-29T01:10:33.803Z,84.00
2017-09-29T01:13:01.213Z,84.80
2017-09-29T01:15:28.620Z,84.84
2017-09-29T01:17:56.018Z,83.95
2017-09-29T01:20:23.530Z,83.99
2017-09-29T01:22:50.935Z,83.20
2017-09-29T01:25:18.391Z,82.48
2017-09-29T01:27:45.779Z,82.32
2017-09-29T01:30:13.183Z,82.55
2017-09-29T01:32:40.586Z,82.99
2017-09-29T01:35:07.992Z,83.78
2017-09-29T01:37:35.394Z,83.96
2017-09-29T01:40:02.798Z,84.23
2017-09-29T01:42:30.207Z,83.66
2017-09-29T01:44:57.601Z,83.90
2017-09-29T01:47:25.014Z,83.14
2017-09-29T01:49:52.415Z,83.17
2017-09-29T01:52:19.820Z,83.83
2017-09-29T01:54:47.218Z,83.58
2017-09-29T01:57:14.629Z,83.26
2017-09-29T01:59:42.026Z,82.97
2017-09-29T02:02:09.436Z,81.30
2017-09-29T02:04:36.851Z,81.31
2017-09-29T02:07:04.254Z,82.10
2017-09-29T02:09:31.654Z,82.37
2017-09-29T02:11:59.060Z,82.58
2017-09-29T02:14:26.551Z,82.52
2017-09-29T02:16:53.974Z,82.46
2017-09-29T02:19:21.373Z,82.34
2017-09-29T02:21:48.825Z,83.08
2017-09-29T02:24:16.231Z,83.00
2017-09-29T02:26:43.730Z,83.29
2017-09-29T02:29:11.148Z,82.70
2017-09-29T02:31:38.543Z,82.25
2017-09-29T02:34:05.953Z,82.53
2017-09-29T02:36:33.451Z,83.32
2017-09-29T02:39:00.868Z,82.53
2017-09-29T02:41:28.264Z,83.55
2017-09-29T02:43:55.670Z,83.20
2017-09-29T02:46:23.075Z,82.93
2017-09-29T02:48:50.488Z,82.58
2017-09-29T02:51:17.896Z,82.63
2017-09-29T02:53:45.295Z,83.17
2017-09-29T02:56:12.698Z,84.04
2017-09-29T02:58:42.004Z,83.62
2017-09-29T03:01:10.615Z,83.84
2017-09-29T03:03:41.115Z,84.21
2017-09-29T03:06:08.879Z,84.67
2017-09-29T03:08:36.290Z,85.11
2017-09-29T03:11:03.686Z,86.28
2017-09-29T03:13:31.116Z,86.61
2017-09-29T03:15:58.499Z,86.81
2017-09-29T03:18:25.901Z,86.70
2017-09-29T03:20:53.294Z,86.33
2017-09-29T03:23:20.695Z,86.25
2017-09-29T03:25:48.103Z,86.82
2017-09-29T03:28:15.507Z,86.39
2017-09-29T03:30:42.915Z,86.35
2017-09-29T03:33:10.318Z,86.16
2017-09-29T03:35:37.714Z,85.60
2017-09-29T03:38:05.186Z,85.57
2017-09-29T03:40:32.654Z,85.92
2017-09-29T03:43:00.063Z,86.00
2017-09-29T03:45:27.458Z,86.00
2017-09-29T03:47:54.875Z,85.84
2017-09-29T03:50:22.590Z,85.17
2017-09-29T03:52:50.374Z,84.65
2017-09-29T03:55:18.023Z,83.94
2017-09-29T03:57:46.199Z,83.57
2017-09-29T04:00:13.622Z,84.23
2017-09-29T04:02:41.030Z,84.26
2017-09-29T04:05:08.455Z,84.01
2017-09-29T04:07:35.865Z,84.36
2017-09-29T04:10:03.266Z,85.21
2017-09-29T04:12:30.661Z,84.95
2017-09-29T04:14:58.071Z,84.49
2017-09-29T04:17:25.470Z,82.65
2017-09-29T04:19:52.870Z,82.21
2017-09-29T04:22:20.270Z,81.87
2017-09-29T04:24:47.679Z,81.82
2017-09-29T04:27:15.074Z,81.71
2017-09-29T04:29:42.484Z,81.04
2017-09-29T04:32:09.876Z,81.59
2017-09-29T04:34:37.280Z,81.04
2017-09-29T04:37:04.688Z,80.09
2017-09-29T04:39:32.126Z,79.84
2017-09-29T04:44:26.246Z,79.00
2017-09-29T04:46:53.646Z,79.55
2017-09-29T04:49:21.134Z,80.19
2017-09-29T04:51:48.527Z,80.51
2017-09-29T04:54:15.930Z,79.91
2017-09-29T04:56:43.402Z,79.64
2017-09-29T04:59:10.818Z,80.79
2017-09-29T05:01:38.218Z,80.26
2017-09-29T05:04:05.623Z,79.11
2017-09-29T05:06:33.032Z,79.28
2017-09-29T05:09:00.434Z,78.88
2017-09-29T05:11:27.839Z,78.34
2017-09-29T05:13:55.239Z,78.87
2017-09-29T05:16:22.638Z,80.75
2017-09-29T05:18:50.043Z,81.94
2017-09-29T05:21:17.462Z,82.42
2017-09-29T05:23:44.859Z,82.48
2017-09-29T05:26:12.262Z,83.41
2017-09-29T05:28:39.727Z,83.69
2017-09-29T05:31:07.135Z,84.93
2017-09-29T05:33:34.522Z,85.56
2017-09-29T05:36:01.938Z,86.09
2017-09-29T05:38:29.338Z,86.86
2017-09-29T05:40:56.745Z,86.46
2017-09-29T05:43:24.159Z,86.34
2017-09-29T05:45:51.558Z,86.19
2017-09-29T05:48:18.967Z,86.22
2017-09-29T05:50:46.427Z,86.37
2017-09-29T05:53:13.823Z,86.25
2017-09-29T05:55:41.242Z,86.17
2017-09-29T05:58:08.683Z,85.82
2017-09-29T06:00:36.096Z,86.28
2017-09-29T06:03:03.493Z,85.60
2017-09-29T06:05:30.966Z,85.48
2017-09-29T06:07:58.361Z,86.39
2017-09-29T06:10:25.876Z,86.33
2017-09-29T06:12:53.279Z,86.06
2017-09-29T06:15:20.677Z,86.03
2017-09-29T06:17:48.078Z,85.65
2017-09-29T06:20:15.473Z,86.42
2017-09-29T06:22:42.958Z,86.28
2017-09-29T06:25:10.354Z,85.62
2017-09-29T06:27:37.760Z,85.16
2017-09-29T06:30:05.237Z,84.32
2017-09-29T06:32:32.634Z,83.81
2017-09-29T06:35:00.032Z,83.51
2017-09-29T06:37:27.425Z,83.65
2017-09-29T06:39:54.819Z,82.86
2017-09-29T06:42:22.226Z,83.43
2017-09-29T06:44:49.634Z,83.42
2017-09-29T06:47:17.042Z,83.92
2017-09-29T06:49:44.443Z,83.78
2017-09-29T06:52:11.984Z,83.67
2017-09-29T06:54:39.381Z,85.00
2017-09-29T06:57:06.794Z,84.95
2017-09-29T06:59:34.195Z,84.15
2017-09-29T07:02:01.660Z,84.00
2017-09-29T07:04:29.108Z,83.81
2017-09-29T07:06:56.498Z,83.59
2017-09-29T07:09:23.903Z,82.68
2017-09-29T07:11:51.298Z,82.28
2017-09-29T07:14:18.703Z,82.04
2017-09-29T07:16:46.100Z,82.31
2017-09-29T07:19:13.506Z,82.08
2017-09-29T07:21:40.912Z,82.19
2017-09-29T07:24:08.307Z,82.51
2017-09-29T07:26:40.130Z,82.19
2017-09-29T07:29:07.992Z,81.52
2017-09-29T07:31:36.783Z,80.46
2017-09-29T07:34:04.182Z,80.19
2017-09-29T07:36:31.575Z,79.54
2017-09-29T07:38:58.974Z,79.13
2017-09-29T07:41:26.370Z,79.60
2017-09-29T07:43:53.775Z,79.05
2017-09-29T07:46:21.171Z,79.75
2017-09-29T07:48:48.662Z,76.75
2017-09-29T07:51:16.062Z,75.48
2017-09-29T07:53:43.467Z,76.18
2017-09-29T07:56:10.929Z,75.22
2017-09-29T07:58:38.323Z,73.42
2017-09-29T08:01:05.722Z,71.56
2017-09-29T08:03:33.126Z,71.17
2017-09-29T08:06:00.522Z,69.99
2017-09-29T08:08:28.003Z,68.58
2017-09-29T08:10:55.393Z,68.05
2017-09-29T08:13:22.822Z,66.70
2017-09-29T08:15:50.227Z,66.63
2017-09-29T08:18:17.629Z,65.12
2017-09-29T08:20:45.101Z,62.63
2017-09-29T08:23:12.482Z,60.37
2017-09-29T08:25:39.891Z,59.21
2017-09-29T08:28:07.360Z,60.18
2017-09-29T08:30:34.766Z,61.22
2017-09-29T08:33:02.265Z,59.43
2017-09-29T08:35:29.658Z,57.40
2017-09-29T08:37:57.054Z,56.12
2017-09-29T08:40:24.454Z,58.05
2017-09-29T08:42:51.850Z,54.18
2017-09-29T08:45:19.302Z,52.77
2017-09-29T08:47:46.798Z,54.29
2017-09-29T08:50:14.280Z,54.73
2017-09-29T08:52:41.695Z,53.49
2017-09-29T08:55:09.174Z,54.28
2017-09-29T08:57:36.734Z,53.79
2017-09-29T09:00:04.150Z,52.84
2017-09-29T09:02:31.535Z,53.45
2017-09-29T09:04:58.946Z,54.12
2017-09-29T09:07:26.346Z,56.09
2017-09-29T09:09:53.734Z,57.63
2017-09-29T09:12:21.151Z,57.69
2017-09-29T09:14:48.543Z,55.66
2017-09-29T09:17:15.938Z,57.72
2017-09-29T09:19:43.335Z,57.63
2017-09-29T09:22:10.734Z,58.67
2017-09-29T09:24:38.251Z,58.18
2017-09-29T09:27:05.650Z,56.69
2017-09-29T09:29:33.049Z,58.01
2017-09-29T09:32:00.454Z,59.25
2017-09-29T09:34:27.853Z,59.72
2017-09-29T09:36:55.565Z,57.80
2017-09-29T09:39:22.959Z,57.64
2017-09-29T09:41:50.458Z,57.38
2017-09-29T09:44:17.861Z,56.10
2017-09-29T09:46:45.271Z,56.90
2017-09-29T09:49:12.666Z,56.16
2017-09-29T09:51:40.071Z,57.05
2017-09-29T09:54:07.465Z,56.29
2017-09-29T09:56:35.286Z,55.45
2017-09-29T09:59:02.690Z,58.53
2017-09-29T10:01:30.098Z,58.26
2017-09-29T10:03:57.491Z,56.04
2017-09-29T10:06:24.926Z,58.21
2017-09-29T10:08:52.318Z,58.09
2017-09-29T10:11:19.714Z,58.29
2017-09-29T10:13:47.109Z,59.47
2017-09-29T10:16:14.511Z,59.70
2017-09-29T10:18:41.912Z,59.23
2017-09-29T10:21:09.298Z,60.20
2017-09-29T10:23:36.698Z,59.56
2017-09-29T10:26:04.095Z,60.08
2017-09-29T10:28:31.504Z,59.15
2017-09-29T10:30:58.902Z,59.59
2017-09-29T10:33:26.308Z,60.78
2017-09-29T10:35:53.698Z,61.02
2017-09-29T10:38:21.098Z,62.85
2017-09-29T10:40:48.491Z,60.23
2017-09-29T10:43:15.887Z,57.96
2017-09-29T10:45:43.282Z,58.68
2017-09-29T10:48:10.694Z,58.47
2017-09-29T10:50:38.100Z,59.36
2017-09-29T10:53:05.498Z,59.92
2017-09-29T10:55:32.914Z,58.50
2017-09-29T10:58:00.315Z,57.21
2017-09-29T11:00:27.746Z,58.62
2017-09-29T11:02:55.111Z,60.62
2017-09-29T11:05:22.566Z,60.37
2017-09-29T11:07:49.959Z,58.19
2017-09-29T11:10:17.360Z,59.57
2017-09-29T11:12:44.811Z,59.15
2017-09-29T11:15:12.230Z,59.54
2017-09-29T11:17:39.665Z,61.26
2017-09-29T11:20:07.051Z,61.23
2017-09-29T11:22:34.451Z,60.56
2017-09-29T11:25:01.846Z,59.20
2017-09-29T11:27:29.247Z,59.59
2017-09-29T11:29:56.647Z,59.45
2017-09-29T11:32:24.039Z,59.23
2017-09-29T11:34:51.438Z,58.35
2017-09-29T11:37:18.818Z,58.70
2017-09-29T11:39:46.262Z,58.84
2017-09-29T11:42:13.727Z,59.52
2017-09-29T11:44:41.134Z,58.92
2017-09-29T11:47:08.531Z,61.12
2017-09-29T11:49:35.927Z,60.30
2017-09-29T11:52:03.326Z,60.55
2017-09-29T11:54:30.718Z,59.31
2017-09-29T11:56:58.130Z,58.80
2017-09-29T11:59:25.526Z,58.00
2017-09-29T12:01:52.936Z,58.18
2017-09-29T12:04:20.335Z,59.55
2017-09-29T12:06:47.726Z,57.98
2017-09-29T12:09:15.118Z,57.55
2017-09-29T12:11:42.514Z,59.69
2017-09-29T12:14:09.914Z,57.10
2017-09-29T12:16:37.326Z,56.09
2017-09-29T12:19:04.735Z,56.87
2017-09-29T12:21:32.133Z,57.46
2017-09-29T12:23:59.531Z,57.82
2017-09-29T12:26:26.930Z,57.27
2017-09-29T12:28:54.326Z,57.63
2017-09-29T12:31:21.741Z,55.71
2017-09-29T12:33:49.138Z,54.99
2017-09-29T12:36:16.534Z,56.93
2017-09-29T12:38:43.942Z,56.38
2017-09-29T12:41:11.353Z,54.82
2017-09-29T12:43:38.747Z,54.78
2017-09-29T12:46:06.143Z,56.64
2017-09-29T12:48:33.542Z,57.47
2017-09-29T12:51:00.934Z,54.98
2017-09-29T12:53:28.334Z,54.55
2017-09-29T12:55:55.734Z,53.64
2017-09-29T12:58:23.135Z,54.84
2017-09-29T13:00:50.614Z,55.43
2017-09-29T13:03:18.018Z,54.33
2017-09-29T13:05:45.421Z,54.97
2017-09-29T13:08:12.826Z,54.14
2017-09-29T13:10:40.222Z,54.04
2017-09-29T13:13:07.622Z,53.72
2017-09-29T13:15:35.019Z,55.19
2017-09-29T13:18:02.411Z,54.27
2017-09-29T13:20:29.803Z,56.29
2017-09-29T13:22:57.206Z,55.76
2017-09-29T13:25:24.594Z,55.17
2017-09-29T13:27:51.997Z,53.36
2017-09-29T13:30:19.395Z,51.13
2017-09-29T13:32:46.790Z,53.14
2017-09-29T13:35:14.195Z,53.86
2017-09-29T13:37:41.662Z,53.52
2017-09-29T13:40:09.066Z,54.30
2017-09-29T13:42:36.459Z,51.74
2017-09-29T13:45:03.863Z,53.14
2017-09-29T13:47:31.250Z,51.77
2017-09-29T13:49:58.653Z,52.06
2017-09-29T13:52:26.081Z,52.73
2017-09-29T13:54:53.482Z,55.08
2017-09-29T13:57:20.910Z,52.40
2017-09-29T13:59:48.314Z,51.20
2017-09-29T14:02:15.707Z,51.57
2017-09-29T14:04:43.147Z,52.63
2017-09-29T14:07:10.548Z,51.72
2017-09-29T14:09:37.950Z,52.64
2017-09-29T14:12:05.342Z,53.51
2017-09-29T14:14:32.751Z,53.11
2017-09-29T14:17:00.137Z,53.79
2017-09-29T14:19:27.542Z,55.56
2017-09-29T14:21:54.942Z,53.60
2017-09-29T14:24:22.431Z,55.89
2017-09-29T14:26:49.822Z,55.28
2017-09-29T14:29:17.237Z,55.31
2017-09-29T14:31:44.676Z,57.99
2017-09-29T14:34:12.078Z,56.79
2017-09-29T14:36:39.470Z,56.60
2017-09-29T14:39:06.886Z,55.92
2017-09-29T14:41:34.273Z,54.81
2017-09-29T14:44:01.682Z,55.01
2017-09-29T14:46:29.077Z,53.31
2017-09-29T14:48:56.475Z,53.92
2017-09-29T14:51:24.070Z,54.93
2017-09-29T14:53:51.472Z,55.18
2017-09-29T14:56:18.962Z,57.37
2017-09-29T14:58:46.360Z,55.92
2017-09-29T15:01:13.762Z,55.58
2017-09-29T15:03:41.153Z,56.49
2017-09-29T15:06:08.554Z,55.49
2017-09-29T15:08:35.947Z,56.72
2017-09-29T15:11:03.346Z,56.21
2017-09-29T15:13:30.738Z,57.92
2017-09-29T15:15:58.133Z,55.92
2017-09-29T15:18:25.530Z,55.34
2017-09-29T15:20:52.928Z,55.75
2017-09-29T15:23:20.318Z,55.44
2017-09-29T15:25:47.738Z,55.71
2017-09-29T15:28:15.127Z,55.60
2017-09-29T15:30:42.530Z,55.36
2017-09-29T15:33:09.921Z,55.24
2017-09-29T15:35:37.362Z,54.23
2017-09-29T15:38:04.753Z,54.19
2017-09-29T15:40:32.142Z,54.63
2017-09-29T15:42:59.634Z,55.78
2017-09-29T15:45:27.022Z,54.56
2017-09-29T15:47:54.423Z,55.32
2017-09-29T15:50:21.818Z,57.33
2017-09-29T15:52:49.214Z,56.42
2017-09-29T15:55:16.607Z,57.95
2017-09-29T15:57:44.010Z,58.03
2017-09-29T16:00:11.410Z,58.18
2017-09-29T16:02:38.811Z,59.56
2017-09-29T16:05:06.202Z,59.68
2017-09-29T16:07:33.608Z,59.71
2017-09-29T16:10:01.004Z,59.89
2017-09-29T16:12:28.402Z,61.03
2017-09-29T16:14:55.790Z,60.33
2017-09-29T16:17:23.220Z,61.20
2017-09-29T16:19:50.622Z,60.39
2017-09-29T16:22:18.022Z,60.25
2017-09-29T16:24:45.411Z,61.28
2017-09-29T16:27:12.826Z,61.31
2017-09-29T16:29:40.213Z,61.97
2017-09-29T16:32:07.649Z,62.36
2017-09-29T16:34:35.042Z,62.15
2017-09-29T16:37:02.443Z,63.20
2017-09-29T16:39:29.834Z,64.01
2017-09-29T16:41:57.234Z,63.69
2017-09-29T16:44:24.634Z,63.84
2017-09-29T16:46:52.026Z,63.41
2017-09-29T16:49:19.422Z,64.04
2017-09-29T16:51:46.816Z,63.66
2017-09-29T16:54:14.210Z,62.92
2017-09-29T16:56:41.614Z,62.37
2017-09-29T16:59:09.010Z,63.05
2017-09-29T17:01:36.414Z,63.90
2017-09-29T17:04:03.816Z,64.54
2017-09-29T17:06:31.210Z,64.93
2017-09-29T17:08:58.609Z,65.98
2017-09-29T17:11:25.993Z,66.25
2017-09-29T17:13:53.395Z,66.65
2017-09-29T17:16:20.790Z,66.47
2017-09-29T17:18:48.186Z,66.13
2017-09-29T17:21:15.586Z,66.95
2017-09-29T17:23:42.977Z,67.49
2017-09-29T17:26:10.381Z,68.71
2017-09-29T17:28:37.775Z,68.96
2017-09-29T17:31:06.080Z,69.17
2017-09-29T17:33:33.465Z,69.48
2017-09-29T17:36:00.864Z,69.42
2017-09-29T17:38:28.255Z,70.09
2017-09-29T17:40:55.656Z,70.47
2017-09-29T17:43:23.098Z,71.27
2017-09-29T17:45:50.492Z,71.32
2017-09-29T17:48:17.897Z,71.97
2017-09-29T17:50:45.303Z,72.02
2017-09-29T17:53:12.699Z,71.79
2017-09-29T17:55:40.165Z,72.12
2017-09-29T17:58:07.562Z,71.90
2017-09-29T18:00:34.967Z,72.28
2017-09-29T18:03:02.392Z,72.20
2017-09-29T18:05:29.894Z,72.93
2017-09-29T18:07:57.290Z,72.75
2017-09-29T18:10:24.694Z,73.03
2017-09-29T18:12:52.088Z,73.67
2017-09-29T18:15:19.488Z,73.77
2017-09-29T18:17:46.879Z,74.21
2017-09-29T18:20:14.277Z,74.37
2017-09-29T18:22:42.514Z,74.46
2017-09-29T18:25:09.970Z,74.52
2017-09-29T18:27:37.374Z,74.22
2017-09-29T18:30:04.831Z,75.07
2017-09-29T18:32:32.235Z,74.01
2017-09-29T18:34:59.624Z,74.63
2017-09-29T18:37:27.022Z,75.72
2017-09-29T18:39:54.419Z,75.66
2017-09-29T18:42:21.824Z,76.23
2017-09-29T18:44:49.213Z,75.66
2017-09-29T18:47:26.516Z,75.77
2017-09-29T18:49:53.917Z,75.98
2017-09-29T18:52:21.427Z,76.08
2017-09-29T18:54:48.870Z,75.99
2017-09-29T18:57:16.274Z,76.99
2017-09-29T18:59:43.665Z,76.85
2017-09-29T19:02:11.072Z,76.07
2017-09-29T19:04:38.468Z,76.54
2017-09-29T19:07:05.870Z,77.34
2017-09-29T19:09:33.308Z,77.10
2017-09-29T19:12:00.694Z,76.80
2017-09-29T19:14:28.091Z,77.60
2017-09-29T19:16:55.490Z,77.41
2017-09-29T19:19:22.889Z,76.45
2017-09-29T19:21:50.282Z,76.42
2017-09-29T19:24:17.686Z,75.49
2017-09-29T19:26:45.083Z,74.00
2017-09-29T19:29:12.487Z,74.46
2017-09-29T19:31:39.883Z,76.24
2017-09-29T19:34:07.287Z,76.67
2017-09-29T19:36:34.675Z,76.62
2017-09-29T19:39:02.076Z,76.91
2017-09-29T19:41:29.476Z,77.34
2017-09-29T19:43:56.895Z,77.70
2017-09-29T19:46:24.274Z,77.03
2017-09-29T19:48:51.682Z,76.89
2017-09-29T19:51:19.074Z,77.67
2017-09-29T19:53:46.474Z,77.07
2017-09-29T19:56:13.861Z,77.95
2017-09-29T19:58:41.270Z,77.56
2017-09-29T20:01:08.674Z,77.38
2017-09-29T20:03:36.076Z,77.24
2017-09-29T20:06:03.483Z,77.72
2017-09-29T20:08:30.939Z,76.93
2017-09-29T20:10:58.330Z,76.93
2017-09-29T20:13:25.746Z,77.00
2017-09-29T20:15:53.142Z,77.03
2017-09-29T20:18:20.529Z,78.13
2017-09-29T20:20:47.930Z,78.35
2017-09-29T20:23:15.506Z,78.69
2017-09-29T20:25:42.917Z,78.12
2017-09-29T20:28:10.318Z,78.72
2017-09-29T20:30:37.722Z,78.73
2017-09-29T20:33:05.119Z,78.34
2017-09-29T20:35:32.554Z,78.27
2017-09-29T20:37:59.950Z,78.29
2017-09-29T20:40:27.366Z,78.61
2017-09-29T20:42:54.758Z,77.76
2017-09-29T20:45:22.162Z,78.75
2017-09-29T20:47:49.554Z,78.77
2017-09-29T20:50:16.955Z,77.85
2017-09-29T20:52:44.346Z,77.07
2017-09-29T20:55:11.906Z,76.64
2017-09-29T20:57:39.299Z,76.33
2017-09-29T21:00:06.717Z,77.28
2017-09-29T21:02:34.112Z,76.78
2017-09-29T21:05:01.502Z,77.11
2017-09-29T21:07:28.986Z,77.25
2017-09-29T21:09:56.415Z,78.05
2017-09-29T21:12:23.802Z,78.30
2017-09-29T21:14:51.199Z,77.40
2017-09-29T21:17:18.601Z,78.66
2017-09-29T21:19:45.990Z,78.15
2017-09-29T21:22:13.386Z,78.89
2017-09-29T21:24:40.786Z,78.74
2017-09-29T21:27:08.180Z,78.78
2017-09-29T21:29:35.580Z,78.63
2017-09-29T21:32:02.997Z,79.06
2017-09-29T21:34:30.390Z,78.50
2017-09-29T21:36:57.794Z,78.55
2017-09-29T21:39:25.206Z,79.21
2017-09-29T21:41:52.611Z,80.07
2017-09-29T21:44:20.006Z,80.16
2017-09-29T21:46:47.479Z,80.03
2017-09-29T21:49:14.865Z,79.45
2017-09-29T21:51:42.282Z,79.04
2017-09-29T21:54:09.674Z,79.65
2017-09-29T21:59:03.835Z,79.02
2017-09-29T22:01:31.234Z,79.22
2017-09-29T22:03:58.627Z,79.68
2017-09-29T22:06:26.023Z,79.89
2017-09-29T22:08:53.418Z,78.96
2017-09-29T22:11:20.918Z,78.61
2017-09-29T22:13:48.323Z,78.87
2017-09-29T22:16:15.709Z,79.19
2017-09-29T22:18:43.114Z,79.32
2017-09-29T22:21:10.516Z,79.64
2017-09-29T22:23:38.002Z,79.00
2017-09-29T22:26:05.389Z,79.53
2017-09-29T22:28:32.791Z,79.83
2017-09-29T22:31:00.185Z,80.05
2017-09-29T22:33:27.587Z,80.31
2017-09-29T22:35:54.986Z,80.57
2017-09-29T22:38:22.386Z,80.30
2017-09-29T22:40:49.779Z,80.10
2017-09-29T22:43:17.178Z,80.53
2017-09-29T22:45:44.572Z,80.41
2017-09-29T22:48:11.973Z,80.19
2017-09-29T22:50:39.364Z,79.85
2017-09-29T22:53:06.759Z,79.74
2017-09-29T22:55:34.154Z,79.96
2017-09-29T22:58:01.577Z,79.57
2017-09-29T23:00:28.973Z,79.58
2017-09-29T23:02:56.370Z,79.36
2017-09-29T23:05:23.773Z,79.72
2017-09-29T23:07:51.182Z,79.79
2017-09-29T23:10:18.585Z,80.45
2017-09-29T23:12:45.968Z,80.42
2017-09-29T23:15:13.362Z,80.44
2017-09-29T23:17:40.778Z,81.08
2017-09-29T23:20:08.182Z,80.85
2017-09-29T23:22:35.570Z,81.02
2017-09-29T23:25:02.969Z,81.24
2017-09-29T23:27:30.362Z,81.07
2017-09-29T23:29:57.834Z,80.22
2017-09-29T23:32:25.224Z,80.05
2017-09-29T23:34:52.629Z,80.37
2017-09-29T23:37:20.014Z,80.82
2017-09-29T23:39:47.418Z,81.33
2017-09-29T23:42:14.834Z,81.14
2017-09-29T23:44:42.230Z,80.93
2017-09-29T23:47:09.620Z,80.17
2017-09-29T23:49:37.090Z,80.78
2017-09-29T23:52:04.506Z,80.45
2017-09-29T23:54:32.009Z,81.12
2017-09-29T23:56:59.402Z,81.05
2017-09-29T23:59:26.817Z,81.41
